sensor_id;sensor_type;location;lat;lon;timestamp;temperature;humidity
66373;SHT30;53168;51.146;17.120;2022-09-09T00:01:22;16.75;84.34
66373;SHT30;53168;51.146;17.120;2022-09-09T00:04:09;16.74;84.41
66373;SHT30;53168;51.146;17.120;2022-09-09T00:06:53;16.70;84.34
66373;SHT30;53168;51.146;17.120;2022-09-09T00:09:38;16.65;84.31
66373;SHT30;53168;51.146;17.120;2022-09-09T00:12:21;16.65;84.45
66373;SHT30;53168;51.146;17.120;2022-09-09T00:15:05;16.63;84.48
66373;SHT30;53168;51.146;17.120;2022-09-09T00:17:49;16.54;84.41
66373;SHT30;53168;51.146;17.120;2022-09-09T00:20:32;16.51;84.50
66373;SHT30;53168;51.146;17.120;2022-09-09T00:23:20;16.45;84.49
66373;SHT30;53168;51.146;17.120;2022-09-09T00:26:02;16.42;84.50
66373;SHT30;53168;51.146;17.120;2022-09-09T00:28:45;16.40;84.55
66373;SHT30;53168;51.146;17.120;2022-09-09T00:31:31;16.40;84.63
66373;SHT30;53168;51.146;17.120;2022-09-09T00:34:09;16.39;84.60
66373;SHT30;53168;51.146;17.120;2022-09-09T00:36:48;16.37;84.55
66373;SHT30;53168;51.146;17.120;2022-09-09T00:39:27;16.33;84.50
66373;SHT30;53168;51.146;17.120;2022-09-09T00:42:12;16.30;84.50
66373;SHT30;53168;51.146;17.120;2022-09-09T00:44:56;16.27;84.56
66373;SHT30;53168;51.146;17.120;2022-09-09T00:47:46;16.24;84.56
66373;SHT30;53168;51.146;17.120;2022-09-09T00:50:35;16.23;84.60
66373;SHT30;53168;51.146;17.120;2022-09-09T00:53:32;16.17;84.52
66373;SHT30;53168;51.146;17.120;2022-09-09T00:56:27;16.15;84.63
66373;SHT30;53168;51.146;17.120;2022-09-09T00:59:16;16.09;84.55
66373;SHT30;53168;51.146;17.120;2022-09-09T01:02:13;16.05;84.59
66373;SHT30;53168;51.146;17.120;2022-09-09T01:05:07;16.05;84.71
66373;SHT30;53168;51.146;17.120;2022-09-09T01:07:51;16.07;84.70
66373;SHT30;53168;51.146;17.120;2022-09-09T01:10:28;16.05;84.62
66373;SHT30;53168;51.146;17.120;2022-09-09T01:13:22;16.02;84.61
66373;SHT30;53168;51.146;17.120;2022-09-09T01:16:20;16.01;84.69
66373;SHT30;53168;51.146;17.120;2022-09-09T01:18:57;16.01;84.70
66373;SHT30;53168;51.146;17.120;2022-09-09T01:21:39;15.98;84.70
66373;SHT30;53168;51.146;17.120;2022-09-09T01:24:31;15.96;84.69
66373;SHT30;53168;51.146;17.120;2022-09-09T01:27:20;15.96;84.69
66373;SHT30;53168;51.146;17.120;2022-09-09T01:29:59;15.96;84.69
66373;SHT30;53168;51.146;17.120;2022-09-09T01:32:40;15.97;84.66
66373;SHT30;53168;51.146;17.120;2022-09-09T01:35:29;15.99;84.76
66373;SHT30;53168;51.146;17.120;2022-09-09T01:38:18;16.00;84.73
66373;SHT30;53168;51.146;17.120;2022-09-09T01:40:52;15.95;84.64
66373;SHT30;53168;51.146;17.120;2022-09-09T01:43:38;15.92;84.67
66373;SHT30;53168;51.146;17.120;2022-09-09T01:46:12;15.87;84.68
66373;SHT30;53168;51.146;17.120;2022-09-09T01:48:53;15.86;84.71
66373;SHT30;53168;51.146;17.120;2022-09-09T01:51:33;15.84;84.67
66373;SHT30;53168;51.146;17.120;2022-09-09T01:54:11;15.83;84.70
66373;SHT30;53168;51.146;17.120;2022-09-09T01:56:47;15.83;84.76
66373;SHT30;53168;51.146;17.120;2022-09-09T01:59:37;15.80;84.73
66373;SHT30;53168;51.146;17.120;2022-09-09T02:02:25;15.78;84.78
66373;SHT30;53168;51.146;17.120;2022-09-09T02:05:14;15.73;84.80
66373;SHT30;53168;51.146;17.120;2022-09-09T02:08:03;15.63;84.71
66373;SHT30;53168;51.146;17.120;2022-09-09T02:10:53;15.56;84.83
66373;SHT30;53168;51.146;17.120;2022-09-09T02:13:43;15.53;84.90
66373;SHT30;53168;51.146;17.120;2022-09-09T02:16:21;15.51;84.99
66373;SHT30;53168;51.146;17.120;2022-09-09T02:19:02;15.51;85.04
66373;SHT30;53168;51.146;17.120;2022-09-09T02:21:52;15.48;84.99
66373;SHT30;53168;51.146;17.120;2022-09-09T02:24:31;15.43;85.00
66373;SHT30;53168;51.146;17.120;2022-09-09T02:27:21;15.43;85.05
66373;SHT30;53168;51.146;17.120;2022-09-09T02:29:56;15.44;85.11
66373;SHT30;53168;51.146;17.120;2022-09-09T02:32:41;15.45;85.14
66373;SHT30;53168;51.146;17.120;2022-09-09T02:35:19;15.42;85.04
66373;SHT30;53168;51.146;17.120;2022-09-09T02:37:58;15.41;85.09
66373;SHT30;53168;51.146;17.120;2022-09-09T02:41:00;15.41;85.10
66373;SHT30;53168;51.146;17.120;2022-09-09T02:43:36;15.38;85.04
66373;SHT30;53168;51.146;17.120;2022-09-09T02:46:24;15.37;85.03
66373;SHT30;53168;51.146;17.120;2022-09-09T02:49:18;15.35;85.01
66373;SHT30;53168;51.146;17.120;2022-09-09T02:52:02;15.36;85.06
66373;SHT30;53168;51.146;17.120;2022-09-09T02:54:40;15.34;85.11
66373;SHT30;53168;51.146;17.120;2022-09-09T02:57:19;15.33;85.05
66373;SHT30;53168;51.146;17.120;2022-09-09T02:59:57;15.30;85.06
66373;SHT30;53168;51.146;17.120;2022-09-09T03:02:33;15.29;85.22
66373;SHT30;53168;51.146;17.120;2022-09-09T03:05:08;15.25;85.20
66373;SHT30;53168;51.146;17.120;2022-09-09T03:07:42;15.19;85.10
66373;SHT30;53168;51.146;17.120;2022-09-09T03:10:21;15.17;85.20
66373;SHT30;53168;51.146;17.120;2022-09-09T03:12:55;15.13;85.20
66373;SHT30;53168;51.146;17.120;2022-09-09T03:15:30;15.12;85.27
66373;SHT30;53168;51.146;17.120;2022-09-09T03:18:06;15.12;85.28
66373;SHT30;53168;51.146;17.120;2022-09-09T03:20:41;15.09;85.20
66373;SHT30;53168;51.146;17.120;2022-09-09T03:23:19;15.05;85.20
66373;SHT30;53168;51.146;17.120;2022-09-09T03:25:54;15.03;85.23
66373;SHT30;53168;51.146;17.120;2022-09-09T03:28:36;15.00;85.21
66373;SHT30;53168;51.146;17.120;2022-09-09T03:31:10;14.97;85.26
66373;SHT30;53168;51.146;17.120;2022-09-09T03:33:44;14.94;85.30
66373;SHT30;53168;51.146;17.120;2022-09-09T03:36:18;14.92;85.31
66373;SHT30;53168;51.146;17.120;2022-09-09T03:39:14;14.90;85.30
66373;SHT30;53168;51.146;17.120;2022-09-09T03:42:03;14.87;85.39
66373;SHT30;53168;51.146;17.120;2022-09-09T03:44:38;14.84;85.37
66373;SHT30;53168;51.146;17.120;2022-09-09T03:47:25;14.80;85.41
66373;SHT30;53168;51.146;17.120;2022-09-09T03:50:09;14.78;85.42
66373;SHT30;53168;51.146;17.120;2022-09-09T03:52:49;14.77;85.40
66373;SHT30;53168;51.146;17.120;2022-09-09T03:55:26;14.76;85.41
66373;SHT30;53168;51.146;17.120;2022-09-09T03:58:01;14.75;85.40
66373;SHT30;53168;51.146;17.120;2022-09-09T04:00:34;14.75;85.40
66373;SHT30;53168;51.146;17.120;2022-09-09T04:03:12;14.77;85.44
66373;SHT30;53168;51.146;17.120;2022-09-09T04:05:46;14.80;85.50
66373;SHT30;53168;51.146;17.120;2022-09-09T04:08:30;14.79;85.41
66373;SHT30;53168;51.146;17.120;2022-09-09T04:11:10;14.78;85.37
66373;SHT30;53168;51.146;17.120;2022-09-09T04:13:44;14.79;85.41
66373;SHT30;53168;51.146;17.120;2022-09-09T04:16:19;14.81;85.50
66373;SHT30;53168;51.146;17.120;2022-09-09T04:18:55;14.80;85.45
66373;SHT30;53168;51.146;17.120;2022-09-09T04:21:30;14.80;85.45
66373;SHT30;53168;51.146;17.120;2022-09-09T04:24:04;14.78;85.50
66373;SHT30;53168;51.146;17.120;2022-09-09T04:26:39;14.77;85.57
66373;SHT30;53168;51.146;17.120;2022-09-09T04:29:15;14.76;85.60
66373;SHT30;53168;51.146;17.120;2022-09-09T04:31:57;14.72;85.50
66373;SHT30;53168;51.146;17.120;2022-09-09T04:34:31;14.71;85.49
66373;SHT30;53168;51.146;17.120;2022-09-09T04:37:07;14.69;85.49
66373;SHT30;53168;51.146;17.120;2022-09-09T04:39:41;14.70;85.50
66373;SHT30;53168;51.146;17.120;2022-09-09T04:42:15;14.71;85.50
66373;SHT30;53168;51.146;17.120;2022-09-09T04:44:48;14.73;85.50
66373;SHT30;53168;51.146;17.120;2022-09-09T04:47:21;14.76;85.52
66373;SHT30;53168;51.146;17.120;2022-09-09T04:49:55;14.77;85.51
66373;SHT30;53168;51.146;17.120;2022-09-09T04:52:29;14.77;85.50
66373;SHT30;53168;51.146;17.120;2022-09-09T04:55:04;14.78;85.52
66373;SHT30;53168;51.146;17.120;2022-09-09T04:57:40;14.81;85.50
66373;SHT30;53168;51.146;17.120;2022-09-09T05:00:15;14.83;85.50
66373;SHT30;53168;51.146;17.120;2022-09-09T05:02:50;14.86;85.50
66373;SHT30;53168;51.146;17.120;2022-09-09T05:05:27;14.87;85.50
66373;SHT30;53168;51.146;17.120;2022-09-09T05:08:13;14.88;85.48
66373;SHT30;53168;51.146;17.120;2022-09-09T05:10:55;14.91;85.41
66373;SHT30;53168;51.146;17.120;2022-09-09T05:13:29;14.95;85.42
66373;SHT30;53168;51.146;17.120;2022-09-09T05:16:10;14.98;85.40
66373;SHT30;53168;51.146;17.120;2022-09-09T05:18:49;15.02;85.40
66373;SHT30;53168;51.146;17.120;2022-09-09T05:21:46;15.06;85.30
66373;SHT30;53168;51.146;17.120;2022-09-09T05:24:27;15.11;85.36
66373;SHT30;53168;51.146;17.120;2022-09-09T05:27:30;15.15;85.33
66373;SHT30;53168;51.146;17.120;2022-09-09T05:30:04;15.18;85.37
66373;SHT30;53168;51.146;17.120;2022-09-09T05:32:40;15.21;85.34
66373;SHT30;53168;51.146;17.120;2022-09-09T05:35:14;15.25;85.30
66373;SHT30;53168;51.146;17.120;2022-09-09T05:41:27;15.41;85.29
66373;SHT30;53168;51.146;17.120;2022-09-09T05:44:17;15.48;85.23
66373;SHT30;53168;51.146;17.120;2022-09-09T05:47:24;15.56;85.21
66373;SHT30;53168;51.146;17.120;2022-09-09T05:49:58;15.62;85.23
66373;SHT30;53168;51.146;17.120;2022-09-09T05:52:41;15.68;85.27
66373;SHT30;53168;51.146;17.120;2022-09-09T05:55:24;15.73;85.20
66373;SHT30;53168;51.146;17.120;2022-09-09T05:57:59;15.79;85.15
66373;SHT30;53168;51.146;17.120;2022-09-09T06:01:02;15.89;85.19
66373;SHT30;53168;51.146;17.120;2022-09-09T06:03:38;15.97;85.18
66373;SHT30;53168;51.146;17.120;2022-09-09T06:06:48;16.07;85.10
66373;SHT30;53168;51.146;17.120;2022-09-09T06:09:55;16.18;85.12
66373;SHT30;53168;51.146;17.120;2022-09-09T06:12:29;16.24;85.01
66373;SHT30;53168;51.146;17.120;2022-09-09T06:15:03;16.32;84.99
66373;SHT30;53168;51.146;17.120;2022-09-09T06:17:39;16.41;84.99
66373;SHT30;53168;51.146;17.120;2022-09-09T06:20:14;16.52;84.97
66373;SHT30;53168;51.146;17.120;2022-09-09T06:22:49;16.65;84.87
66373;SHT30;53168;51.146;17.120;2022-09-09T06:25:22;16.75;84.69
66373;SHT30;53168;51.146;17.120;2022-09-09T06:27:56;16.83;84.45
66373;SHT30;53168;51.146;17.120;2022-09-09T06:30:31;16.93;84.48
66373;SHT30;53168;51.146;17.120;2022-09-09T06:33:07;17.06;84.31
66373;SHT30;53168;51.146;17.120;2022-09-09T06:35:41;17.17;84.05
66373;SHT30;53168;51.146;17.120;2022-09-09T06:38:23;17.33;84.17
66373;SHT30;53168;51.146;17.120;2022-09-09T06:41:02;17.49;84.02
66373;SHT30;53168;51.146;17.120;2022-09-09T06:43:58;17.69;84.05
66373;SHT30;53168;51.146;17.120;2022-09-09T06:46:42;17.84;83.91
66373;SHT30;53168;51.146;17.120;2022-09-09T06:49:17;17.99;83.69
66373;SHT30;53168;51.146;17.120;2022-09-09T06:51:51;18.11;83.53
66373;SHT30;53168;51.146;17.120;2022-09-09T06:54:32;18.19;83.23
66373;SHT30;53168;51.146;17.120;2022-09-09T06:57:07;18.24;83.11
66373;SHT30;53168;51.146;17.120;2022-09-09T07:00:13;18.34;83.19
66373;SHT30;53168;51.146;17.120;2022-09-09T07:03:19;18.50;83.17
66373;SHT30;53168;51.146;17.120;2022-09-09T07:06:05;18.66;83.08
66373;SHT30;53168;51.146;17.120;2022-09-09T07:08:49;18.84;82.97
66373;SHT30;53168;51.146;17.120;2022-09-09T07:11:41;19.01;82.61
66373;SHT30;53168;51.146;17.120;2022-09-09T07:14:21;19.14;82.55
66373;SHT30;53168;51.146;17.120;2022-09-09T07:17:00;19.27;82.46
66373;SHT30;53168;51.146;17.120;2022-09-09T07:19:37;19.43;82.48
66373;SHT30;53168;51.146;17.120;2022-09-09T07:22:12;19.56;82.20
66373;SHT30;53168;51.146;17.120;2022-09-09T07:24:46;19.66;81.84
66373;SHT30;53168;51.146;17.120;2022-09-09T07:27:20;19.77;81.85
66373;SHT30;53168;51.146;17.120;2022-09-09T07:29:56;19.91;81.87
66373;SHT30;53168;51.146;17.120;2022-09-09T07:32:33;19.95;81.41
66373;SHT30;53168;51.146;17.120;2022-09-09T07:35:07;20.04;81.57
66373;SHT30;53168;51.146;17.120;2022-09-09T07:37:41;20.12;81.20
66373;SHT30;53168;51.146;17.120;2022-09-09T07:40:20;20.24;81.16
66373;SHT30;53168;51.146;17.120;2022-09-09T07:42:54;20.33;80.98
66373;SHT30;53168;51.146;17.120;2022-09-09T07:45:28;20.47;81.06
66373;SHT30;53168;51.146;17.120;2022-09-09T07:48:02;20.51;79.98
66373;SHT30;53168;51.146;17.120;2022-09-09T07:50:37;20.56;79.65
66373;SHT30;53168;51.146;17.120;2022-09-09T07:53:11;20.62;79.54
66373;SHT30;53168;51.146;17.120;2022-09-09T07:55:44;20.66;79.71
66373;SHT30;53168;51.146;17.120;2022-09-09T07:58:18;20.73;79.27
66373;SHT30;53168;51.146;17.120;2022-09-09T08:00:51;20.83;79.57
66373;SHT30;53168;51.146;17.120;2022-09-09T08:03:26;20.95;79.22
66373;SHT30;53168;51.146;17.120;2022-09-09T08:06:01;21.03;78.39
66373;SHT30;53168;51.146;17.120;2022-09-09T08:08:37;21.19;78.09
66373;SHT30;53168;51.146;17.120;2022-09-09T08:11:13;21.31;77.21
66373;SHT30;53168;51.146;17.120;2022-09-09T08:13:47;21.42;77.35
66373;SHT30;53168;51.146;17.120;2022-09-09T08:16:24;21.53;76.77
66373;SHT30;53168;51.146;17.120;2022-09-09T08:19:02;21.61;76.13
66373;SHT30;53168;51.146;17.120;2022-09-09T08:21:37;21.69;75.69
66373;SHT30;53168;51.146;17.120;2022-09-09T08:24:13;21.82;75.33
66373;SHT30;53168;51.146;17.120;2022-09-09T08:26:54;21.88;74.10
66373;SHT30;53168;51.146;17.120;2022-09-09T08:29:31;21.92;73.79
66373;SHT30;53168;51.146;17.120;2022-09-09T08:32:14;21.97;73.34
66373;SHT30;53168;51.146;17.120;2022-09-09T08:34:54;22.01;72.88
66373;SHT30;53168;51.146;17.120;2022-09-09T08:37:35;22.09;73.49
66373;SHT30;53168;51.146;17.120;2022-09-09T08:40:26;22.17;72.52
66373;SHT30;53168;51.146;17.120;2022-09-09T08:43:25;22.29;72.58
66373;SHT30;53168;51.146;17.120;2022-09-09T08:46:09;22.43;72.26
66373;SHT30;53168;51.146;17.120;2022-09-09T08:48:54;22.58;71.62
66373;SHT30;53168;51.146;17.120;2022-09-09T08:51:40;22.73;70.99
66373;SHT30;53168;51.146;17.120;2022-09-09T08:54:19;22.84;69.88
66373;SHT30;53168;51.146;17.120;2022-09-09T08:57:52;22.89;69.41
66373;SHT30;53168;51.146;17.120;2022-09-09T09:00:36;22.90;69.46
66373;SHT30;53168;51.146;17.120;2022-09-09T09:03:35;22.84;68.33
66373;SHT30;53168;51.146;17.120;2022-09-09T09:06:23;22.80;68.34
66373;SHT30;53168;51.146;17.120;2022-09-09T09:09:16;22.75;68.87
66373;SHT30;53168;51.146;17.120;2022-09-09T09:12:13;22.74;67.64
66373;SHT30;53168;51.146;17.120;2022-09-09T09:14:53;22.69;67.82
66373;SHT30;53168;51.146;17.120;2022-09-09T09:17:29;22.75;68.29
66373;SHT30;53168;51.146;17.120;2022-09-09T09:20:11;22.80;68.09
66373;SHT30;53168;51.146;17.120;2022-09-09T09:22:49;22.84;68.12
66373;SHT30;53168;51.146;17.120;2022-09-09T09:25:26;22.94;68.31
66373;SHT30;53168;51.146;17.120;2022-09-09T09:28:10;23.03;67.49
66373;SHT30;53168;51.146;17.120;2022-09-09T09:30:51;23.06;66.17
66373;SHT30;53168;51.146;17.120;2022-09-09T09:33:37;23.04;66.38
66373;SHT30;53168;51.146;17.120;2022-09-09T09:36:21;23.05;65.80
66373;SHT30;53168;51.146;17.120;2022-09-09T09:39:08;23.17;66.36
66373;SHT30;53168;51.146;17.120;2022-09-09T09:42:13;23.28;66.47
66373;SHT30;53168;51.146;17.120;2022-09-09T09:44:53;23.33;65.37
66373;SHT30;53168;51.146;17.120;2022-09-09T09:47:37;23.29;63.99
66373;SHT30;53168;51.146;17.120;2022-09-09T09:50:19;23.26;64.64
66373;SHT30;53168;51.146;17.120;2022-09-09T09:52:57;23.34;64.41
66373;SHT30;53168;51.146;17.120;2022-09-09T09:55:36;23.36;63.93
66373;SHT30;53168;51.146;17.120;2022-09-09T09:58:20;23.41;63.73
66373;SHT30;53168;51.146;17.120;2022-09-09T10:00:54;23.46;62.50
66373;SHT30;53168;51.146;17.120;2022-09-09T10:03:29;23.60;63.18
66373;SHT30;53168;51.146;17.120;2022-09-09T10:06:09;23.67;62.94
66373;SHT30;53168;51.146;17.120;2022-09-09T10:08:45;23.76;62.74
66373;SHT30;53168;51.146;17.120;2022-09-09T10:11:25;23.76;62.25
66373;SHT30;53168;51.146;17.120;2022-09-09T10:14:15;23.80;62.38
66373;SHT30;53168;51.146;17.120;2022-09-09T10:17:02;23.86;62.37
66373;SHT30;53168;51.146;17.120;2022-09-09T10:19:54;23.89;62.55
66373;SHT30;53168;51.146;17.120;2022-09-09T10:22:49;23.82;61.98
66373;SHT30;53168;51.146;17.120;2022-09-09T10:25:36;23.70;62.40
66373;SHT30;53168;51.146;17.120;2022-09-09T10:28:36;23.64;62.31
66373;SHT30;53168;51.146;17.120;2022-09-09T10:31:33;23.67;62.13
66373;SHT30;53168;51.146;17.120;2022-09-09T10:34:25;23.69;62.25
66373;SHT30;53168;51.146;17.120;2022-09-09T10:37:25;23.80;61.34
66373;SHT30;53168;51.146;17.120;2022-09-09T10:40:23;23.94;61.42
66373;SHT30;53168;51.146;17.120;2022-09-09T10:43:09;24.05;60.40
66373;SHT30;53168;51.146;17.120;2022-09-09T10:46:01;24.09;59.90
66373;SHT30;53168;51.146;17.120;2022-09-09T10:48:49;24.16;59.66
66373;SHT30;53168;51.146;17.120;2022-09-09T10:51:43;24.29;59.47
66373;SHT30;53168;51.146;17.120;2022-09-09T10:54:36;24.41;58.86
66373;SHT30;53168;51.146;17.120;2022-09-09T10:57:28;24.55;58.48
66373;SHT30;53168;51.146;17.120;2022-09-09T11:00:14;24.53;57.08
66373;SHT30;53168;51.146;17.120;2022-09-09T11:05:51;24.66;56.08
66373;SHT30;53168;51.146;17.120;2022-09-09T11:08:30;24.66;55.89
66373;SHT30;53168;51.146;17.120;2022-09-09T11:11:09;24.64;55.25
66373;SHT30;53168;51.146;17.120;2022-09-09T11:13:49;24.71;55.98
66373;SHT30;53168;51.146;17.120;2022-09-09T11:16:33;24.88;56.39
66373;SHT30;53168;51.146;17.120;2022-09-09T11:19:13;25.04;55.09
66373;SHT30;53168;51.146;17.120;2022-09-09T11:21:56;25.14;54.77
66373;SHT30;53168;51.146;17.120;2022-09-09T11:24:37;25.34;55.61
66373;SHT30;53168;51.146;17.120;2022-09-09T11:27:20;25.58;55.05
66373;SHT30;53168;51.146;17.120;2022-09-09T11:30:04;25.67;54.74
66373;SHT30;53168;51.146;17.120;2022-09-09T11:42:34;26.19;53.10
66373;SHT30;53168;51.146;17.120;2022-09-09T11:45:15;26.22;53.31
66373;SHT30;53168;51.146;17.120;2022-09-09T11:47:59;26.45;52.05
66373;SHT30;53168;51.146;17.120;2022-09-09T11:50:35;26.52;52.58
66373;SHT30;53168;51.146;17.120;2022-09-09T11:53:19;26.58;52.08
66373;SHT30;53168;51.146;17.120;2022-09-09T11:56:03;26.95;51.95
66373;SHT30;53168;51.146;17.120;2022-09-09T11:58:44;27.46;51.37
66373;SHT30;53168;51.146;17.120;2022-09-09T12:01:30;28.09;50.31
66373;SHT30;53168;51.146;17.120;2022-09-09T12:04:32;29.26;48.62
66373;SHT30;53168;51.146;17.120;2022-09-09T12:07:27;29.29;48.23
66373;SHT30;53168;51.146;17.120;2022-09-09T12:10:20;28.84;49.25
66373;SHT30;53168;51.146;17.120;2022-09-09T12:13:13;28.73;48.69
66373;SHT30;53168;51.146;17.120;2022-09-09T12:15:52;28.28;48.48
66373;SHT30;53168;51.146;17.120;2022-09-09T12:18:31;27.97;48.38
66373;SHT30;53168;51.146;17.120;2022-09-09T12:21:18;27.76;48.52
66373;SHT30;53168;51.146;17.120;2022-09-09T12:24:05;27.83;48.26
66373;SHT30;53168;51.146;17.120;2022-09-09T12:26:43;28.05;48.01
66373;SHT30;53168;51.146;17.120;2022-09-09T12:29:31;28.62;47.76
66373;SHT30;53168;51.146;17.120;2022-09-09T12:32:17;29.34;47.10
66373;SHT30;53168;51.146;17.120;2022-09-09T12:34:55;30.24;45.90
66373;SHT30;53168;51.146;17.120;2022-09-09T12:37:35;30.97;44.39
66373;SHT30;53168;51.146;17.120;2022-09-09T12:40:20;32.07;44.09
66373;SHT30;53168;51.146;17.120;2022-09-09T12:43:00;32.24;42.57
66373;SHT30;53168;51.146;17.120;2022-09-09T12:45:50;32.99;43.01
66373;SHT30;53168;51.146;17.120;2022-09-09T12:48:31;32.99;42.35
66373;SHT30;53168;51.146;17.120;2022-09-09T12:51:18;33.13;41.98
66373;SHT30;53168;51.146;17.120;2022-09-09T12:53:57;32.62;41.14
66373;SHT30;53168;51.146;17.120;2022-09-09T12:56:32;32.83;39.86
66373;SHT30;53168;51.146;17.120;2022-09-09T12:59:21;32.47;39.85
66373;SHT30;53168;51.146;17.120;2022-09-09T13:02:11;31.86;40.41
66373;SHT30;53168;51.146;17.120;2022-09-09T13:04:52;31.51;40.94
66373;SHT30;53168;51.146;17.120;2022-09-09T13:07:35;31.16;40.53
66373;SHT30;53168;51.146;17.120;2022-09-09T13:10:11;30.68;40.53
66373;SHT30;53168;51.146;17.120;2022-09-09T13:13:04;30.41;40.77
66373;SHT30;53168;51.146;17.120;2022-09-09T13:15:49;30.82;40.66
66373;SHT30;53168;51.146;17.120;2022-09-09T13:18:27;31.37;40.08
66373;SHT30;53168;51.146;17.120;2022-09-09T13:21:04;32.08;39.89
66373;SHT30;53168;51.146;17.120;2022-09-09T13:23:37;32.35;39.95
66373;SHT30;53168;51.146;17.120;2022-09-09T13:26:21;33.75;38.80
66373;SHT30;53168;51.146;17.120;2022-09-09T13:29:09;35.05;37.93
66373;SHT30;53168;51.146;17.120;2022-09-09T13:31:52;36.35;36.40
66373;SHT30;53168;51.146;17.120;2022-09-09T13:34:36;35.45;36.60
66373;SHT30;53168;51.146;17.120;2022-09-09T13:37:21;33.87;36.64
66373;SHT30;53168;51.146;17.120;2022-09-09T13:40:02;33.22;37.05
66373;SHT30;53168;51.146;17.120;2022-09-09T13:42:37;33.28;36.33
66373;SHT30;53168;51.146;17.120;2022-09-09T13:45:16;33.39;36.19
66373;SHT30;53168;51.146;17.120;2022-09-09T13:47:55;32.50;36.54
66373;SHT30;53168;51.146;17.120;2022-09-09T13:50:41;32.32;36.62
66373;SHT30;53168;51.146;17.120;2022-09-09T13:53:25;33.06;35.97
66373;SHT30;53168;51.146;17.120;2022-09-09T13:55:59;34.05;35.68
66373;SHT30;53168;51.146;17.120;2022-09-09T13:58:33;33.13;36.62
66373;SHT30;53168;51.146;17.120;2022-09-09T14:01:07;32.22;36.81
66373;SHT30;53168;51.146;17.120;2022-09-09T14:03:41;31.47;37.04
66373;SHT30;53168;51.146;17.120;2022-09-09T14:06:14;31.44;37.11
66373;SHT30;53168;51.146;17.120;2022-09-09T14:08:48;32.54;36.21
66373;SHT30;53168;51.146;17.120;2022-09-09T14:11:23;33.10;35.95
66373;SHT30;53168;51.146;17.120;2022-09-09T14:13:56;33.20;35.78
66373;SHT30;53168;51.146;17.120;2022-09-09T14:16:30;33.44;35.44
66373;SHT30;53168;51.146;17.120;2022-09-09T14:19:04;33.87;34.94
66373;SHT30;53168;51.146;17.120;2022-09-09T14:21:40;34.20;34.70
66373;SHT30;53168;51.146;17.120;2022-09-09T14:24:14;34.16;34.87
66373;SHT30;53168;51.146;17.120;2022-09-09T14:26:50;34.15;34.44
66373;SHT30;53168;51.146;17.120;2022-09-09T14:29:25;34.02;34.17
66373;SHT30;53168;51.146;17.120;2022-09-09T14:32:07;33.31;34.31
66373;SHT30;53168;51.146;17.120;2022-09-09T14:34:40;32.94;34.65
66373;SHT30;53168;51.146;17.120;2022-09-09T14:37:14;32.72;34.78
66373;SHT30;53168;51.146;17.120;2022-09-09T14:39:47;32.39;35.11
66373;SHT30;53168;51.146;17.120;2022-09-09T14:42:21;32.08;35.71
66373;SHT30;53168;51.146;17.120;2022-09-09T14:44:55;32.24;35.64
66373;SHT30;53168;51.146;17.120;2022-09-09T14:47:28;32.75;35.30
66373;SHT30;53168;51.146;17.120;2022-09-09T14:50:02;33.10;35.01
66373;SHT30;53168;51.146;17.120;2022-09-09T14:52:39;33.24;34.87
66373;SHT30;53168;51.146;17.120;2022-09-09T14:55:20;33.34;34.34
66373;SHT30;53168;51.146;17.120;2022-09-09T14:57:53;32.72;34.85
66373;SHT30;53168;51.146;17.120;2022-09-09T15:00:27;31.96;35.07
66373;SHT30;53168;51.146;17.120;2022-09-09T15:03:00;31.30;35.74
66373;SHT30;53168;51.146;17.120;2022-09-09T15:05:34;30.84;36.08
66373;SHT30;53168;51.146;17.120;2022-09-09T15:08:09;30.73;35.88
66373;SHT30;53168;51.146;17.120;2022-09-09T15:10:42;30.64;36.17
66373;SHT30;53168;51.146;17.120;2022-09-09T15:13:16;30.38;36.46
66373;SHT30;53168;51.146;17.120;2022-09-09T15:15:49;30.03;36.99
66373;SHT30;53168;51.146;17.120;2022-09-09T15:18:27;29.71;37.37
66373;SHT30;53168;51.146;17.120;2022-09-09T15:21:02;29.41;37.67
66373;SHT30;53168;51.146;17.120;2022-09-09T15:23:36;29.12;38.23
66373;SHT30;53168;51.146;17.120;2022-09-09T15:26:09;28.99;38.57
66373;SHT30;53168;51.146;17.120;2022-09-09T15:28:44;28.88;39.16
66373;SHT30;53168;51.146;17.120;2022-09-09T15:31:20;28.75;39.70
66373;SHT30;53168;51.146;17.120;2022-09-09T15:34:01;28.57;40.31
66373;SHT30;53168;51.146;17.120;2022-09-09T15:36:37;28.43;40.45
66373;SHT30;53168;51.146;17.120;2022-09-09T15:39:13;28.37;40.59
66373;SHT30;53168;51.146;17.120;2022-09-09T15:41:50;28.30;40.92
66373;SHT30;53168;51.146;17.120;2022-09-09T15:44:23;28.11;41.29
66373;SHT30;53168;51.146;17.120;2022-09-09T15:46:56;27.90;41.67
66373;SHT30;53168;51.146;17.120;2022-09-09T15:49:30;27.61;42.06
66373;SHT30;53168;51.146;17.120;2022-09-09T15:52:03;27.31;42.33
66373;SHT30;53168;51.146;17.120;2022-09-09T15:54:40;27.05;42.77
66373;SHT30;53168;51.146;17.120;2022-09-09T15:57:14;26.79;43.23
66373;SHT30;53168;51.146;17.120;2022-09-09T15:59:47;26.53;43.80
66373;SHT30;53168;51.146;17.120;2022-09-09T16:02:21;26.27;44.27
66373;SHT30;53168;51.146;17.120;2022-09-09T16:04:57;26.05;44.68
66373;SHT30;53168;51.146;17.120;2022-09-09T16:07:31;25.83;45.01
66373;SHT30;53168;51.146;17.120;2022-09-09T16:10:05;25.63;45.46
66373;SHT30;53168;51.146;17.120;2022-09-09T16:12:42;25.42;46.00
66373;SHT30;53168;51.146;17.120;2022-09-09T16:15:18;25.24;46.23
66373;SHT30;53168;51.146;17.120;2022-09-09T16:17:54;25.06;46.75
66373;SHT30;53168;51.146;17.120;2022-09-09T16:20:27;24.89;46.94
66373;SHT30;53168;51.146;17.120;2022-09-09T16:23:00;24.76;47.06
66373;SHT30;53168;51.146;17.120;2022-09-09T16:25:34;24.64;47.59
66373;SHT30;53168;51.146;17.120;2022-09-09T16:28:07;24.51;47.94
66373;SHT30;53168;51.146;17.120;2022-09-09T16:30:40;24.38;48.41
66373;SHT30;53168;51.146;17.120;2022-09-09T16:33:15;24.22;48.70
66373;SHT30;53168;51.146;17.120;2022-09-09T16:35:48;24.08;48.76
66373;SHT30;53168;51.146;17.120;2022-09-09T16:38:22;23.99;49.14
66373;SHT30;53168;51.146;17.120;2022-09-09T16:40:59;23.86;49.38
66373;SHT30;53168;51.146;17.120;2022-09-09T16:43:35;23.74;49.69
66373;SHT30;53168;51.146;17.120;2022-09-09T16:46:13;23.63;49.76
66373;SHT30;53168;51.146;17.120;2022-09-09T16:48:49;23.53;50.19
66373;SHT30;53168;51.146;17.120;2022-09-09T16:51:26;23.39;50.92
66373;SHT30;53168;51.146;17.120;2022-09-09T16:54:02;23.22;51.07
66373;SHT30;53168;51.146;17.120;2022-09-09T16:56:38;23.04;51.41